createdAt,value
2023-01-17T00:05:09.004Z,14.57
2023-01-17T00:10:15.235Z,12.25
2023-01-17T00:15:19.973Z,11.60
2023-01-17T00:20:43.043Z,11.13
2023-01-17T00:26:03.342Z,10.93
2023-01-17T00:31:07.113Z,13.13
2023-01-17T00:36:09.727Z,11.27
2023-01-17T00:41:14.498Z,10.40
2023-01-17T00:46:36.089Z,8.68
2023-01-17T00:51:57.202Z,12.65
2023-01-17T00:57:19.059Z,11.63
2023-01-17T01:02:40.215Z,11.70
2023-01-17T01:08:00.587Z,10.25
2023-01-17T01:13:21.250Z,11.93
2023-01-17T01:18:41.912Z,10.70
2023-01-17T01:24:02.396Z,8.90
2023-01-17T01:29:23.211Z,10.23
2023-01-17T01:34:25.230Z,10.38
2023-01-17T01:39:28.089Z,11.85
2023-01-17T01:49:51.400Z,8.15
2023-01-17T01:54:58.700Z,7.47
2023-01-17T02:05:42.719Z,5.95
2023-01-17T02:10:44.852Z,12.55
2023-01-17T02:15:58.773Z,9.07
2023-01-17T02:21:34.633Z,10.63
2023-01-17T02:26:59.051Z,10.52
2023-01-17T02:32:25.817Z,8.70
2023-01-17T02:37:53.157Z,8.45
2023-01-17T02:43:02.934Z,8.43
2023-01-17T02:48:08.403Z,9.35
2023-01-17T02:53:37.703Z,8.55
2023-01-17T02:58:47.343Z,4.47
2023-01-17T03:03:56.301Z,8.10
2023-01-17T03:08:58.516Z,10.68
2023-01-17T03:14:00.527Z,9.13
2023-01-17T03:19:02.949Z,9.38
2023-01-17T03:24:05.180Z,9.27
2023-01-17T03:29:07.185Z,12.95
2023-01-17T03:34:09.578Z,8.70
2023-01-17T03:39:11.965Z,9.45
2023-01-17T03:44:14.030Z,8.45
2023-01-17T03:49:16.984Z,9.02
2023-01-17T03:54:19.711Z,7.00
2023-01-17T03:59:21.745Z,8.77
2023-01-17T04:04:24.267Z,11.55
2023-01-17T04:09:26.399Z,11.65
2023-01-17T04:14:28.945Z,8.93
2023-01-17T04:19:32.942Z,13.27
2023-01-17T04:24:35.268Z,8.02
2023-01-17T04:29:37.285Z,11.98
2023-01-17T04:34:39.375Z,15.05
2023-01-17T04:39:41.438Z,15.40
2023-01-17T04:44:43.453Z,17.75
2023-01-17T04:49:45.494Z,10.77
2023-01-17T04:54:50.301Z,8.23
2023-01-17T04:59:53.934Z,11.90
2023-01-17T05:04:55.971Z,9.18
2023-01-17T05:10:00.066Z,6.88
2023-01-17T05:15:02.286Z,9.07
2023-01-17T05:20:04.672Z,8.18
2023-01-17T05:25:07.218Z,8.18
2023-01-17T05:30:10.123Z,8.57
2023-01-17T05:40:14.079Z,7.10
2023-01-17T05:45:17.436Z,11.90
2023-01-17T05:50:26.264Z,9.85
2023-01-17T05:55:29.792Z,5.88
2023-01-17T06:00:32.681Z,6.20
2023-01-17T06:10:36.749Z,8.88
2023-01-17T06:15:39.877Z,4.18
2023-01-17T06:20:41.973Z,8.68
2023-01-17T06:25:46.113Z,8.07
2023-01-17T06:30:48.605Z,6.35
2023-01-17T06:35:52.085Z,6.68
2023-01-17T06:40:55.293Z,7.82
2023-01-17T06:45:57.274Z,8.43
2023-01-17T06:50:59.365Z,12.45
2023-01-17T06:56:01.469Z,8.65
2023-01-17T07:01:11.392Z,8.30
2023-01-17T07:06:13.635Z,9.23
2023-01-17T07:11:15.857Z,12.68
2023-01-17T07:16:17.976Z,8.55
2023-01-17T07:21:20.293Z,9.40
2023-01-17T07:26:22.234Z,12.70
2023-01-17T07:31:24.249Z,12.52
2023-01-17T07:36:26.291Z,12.68
2023-01-17T07:41:28.413Z,11.50
2023-01-17T07:46:30.462Z,10.43
2023-01-17T07:51:32.481Z,10.50
2023-01-17T07:56:35.228Z,8.73
2023-01-17T08:01:37.413Z,10.23
2023-01-17T08:06:43.677Z,13.45
2023-01-17T08:11:45.696Z,6.95
2023-01-17T08:16:47.679Z,11.48
2023-01-17T08:21:49.734Z,12.57
2023-01-17T08:26:51.838Z,13.32
2023-01-17T08:31:54.478Z,8.02
2023-01-17T08:36:56.577Z,9.07
2023-01-17T08:41:58.544Z,8.63
2023-01-17T08:47:01.666Z,8.00
2023-01-17T08:52:03.803Z,7.93
2023-01-17T08:57:05.933Z,5.97
2023-01-17T09:02:15.256Z,8.63
2023-01-17T09:07:19.225Z,9.18
2023-01-17T09:12:22.628Z,10.57
2023-01-17T09:17:24.707Z,9.68
2023-01-17T09:22:27.424Z,10.57
2023-01-17T09:27:29.520Z,9.95
2023-01-17T09:32:31.592Z,9.00
2023-01-17T09:37:33.703Z,7.97
2023-01-17T09:42:39.968Z,6.63
2023-01-17T09:47:45.438Z,8.68
2023-01-17T09:52:47.794Z,6.07
2023-01-17T09:58:12.380Z,8.32
2023-01-17T10:03:52.911Z,8.57
2023-01-17T10:09:20.779Z,7.75
2023-01-17T10:14:29.305Z,6.65
2023-01-17T10:20:18.415Z,6.78
2023-01-17T10:25:33.549Z,8.68
2023-01-17T10:30:42.920Z,8.52
2023-01-17T10:35:57.290Z,7.55
2023-01-17T10:41:15.070Z,9.73
2023-01-17T10:46:28.885Z,9.52
2023-01-17T10:51:43.401Z,8.63
2023-01-17T10:56:45.474Z,6.22
2023-01-17T11:01:49.196Z,6.32
2023-01-17T11:07:15.047Z,6.90
2023-01-17T11:12:33.584Z,7.07
2023-01-17T11:17:50.381Z,5.90
2023-01-17T11:23:19.277Z,7.85
2023-01-17T11:28:33.197Z,5.38
2023-01-17T11:33:48.627Z,13.40
2023-01-17T11:39:07.380Z,19.05
2023-01-17T11:44:30.728Z,12.93
2023-01-17T11:49:32.817Z,7.65
2023-01-17T11:54:40.792Z,3.28
2023-01-17T11:59:44.083Z,6.38
2023-01-17T12:04:55.784Z,3.35
2023-01-17T12:10:05.554Z,6.97
2023-01-17T12:15:22.511Z,5.35
2023-01-17T12:21:04.401Z,5.22
2023-01-17T12:26:57.463Z,4.22
2023-01-17T12:32:17.017Z,5.90
2023-01-17T12:37:41.622Z,4.78
2023-01-17T12:42:51.827Z,5.78
2023-01-17T12:48:01.684Z,4.65
2023-01-17T12:53:17.423Z,5.80
2023-01-17T12:58:25.946Z,6.38
2023-01-17T13:03:56.073Z,5.43
2023-01-17T13:09:02.968Z,9.82
2023-01-17T13:14:09.281Z,16.98
2023-01-17T13:19:20.481Z,4.25
2023-01-17T13:24:45.005Z,3.38
2023-01-17T13:30:15.748Z,1.63
2023-01-17T13:36:15.178Z,3.45
2023-01-17T13:41:45.258Z,4.40
2023-01-17T13:47:19.373Z,3.50
2023-01-17T13:52:21.359Z,2.65
2023-01-17T13:57:43.904Z,2.15
2023-01-17T14:02:46.807Z,2.55
2023-01-17T14:08:02.393Z,3.15
2023-01-17T14:13:25.119Z,1.90
2023-01-17T14:18:46.175Z,1.50
2023-01-17T14:23:48.836Z,2.22
2023-01-17T14:28:52.323Z,1.65
2023-01-17T14:33:54.642Z,1.92
2023-01-17T14:38:56.890Z,1.13
2023-01-17T14:44:01.443Z,8.25
2023-01-17T14:49:07.178Z,10.45
2023-01-17T14:54:21.447Z,12.02
2023-01-17T14:59:23.537Z,10.60
2023-01-17T15:04:28.165Z,6.75
2023-01-17T15:09:35.562Z,6.45
2023-01-17T15:14:42.937Z,5.00
2023-01-17T15:19:48.415Z,11.85
2023-01-17T15:24:51.105Z,6.35
2023-01-17T15:29:54.459Z,4.32
2023-01-17T15:34:57.411Z,5.10
2023-01-17T15:40:21.035Z,5.32
2023-01-17T15:45:31.103Z,7.85
2023-01-17T15:50:39.970Z,6.95
2023-01-17T15:55:42.040Z,5.43
2023-01-17T16:00:45.417Z,4.15
2023-01-17T16:05:48.619Z,8.77
2023-01-17T16:10:59.525Z,25.92
2023-01-17T16:16:24.318Z,5.38
2023-01-17T16:21:31.160Z,7.07
2023-01-17T16:26:33.384Z,8.85
2023-01-17T16:31:35.667Z,7.68
2023-01-17T16:36:37.791Z,5.30
2023-01-17T16:41:39.914Z,2.63
2023-01-17T16:46:42.125Z,5.00
2023-01-17T16:51:47.393Z,6.32
2023-01-17T16:56:49.663Z,5.40
2023-01-17T17:01:53.393Z,4.05
2023-01-17T17:06:55.467Z,7.45
2023-01-17T17:11:57.459Z,9.73
2023-01-17T17:17:02.531Z,5.68
2023-01-17T17:22:07.056Z,5.57
2023-01-17T17:27:09.417Z,6.22
2023-01-17T17:32:12.322Z,8.13
2023-01-17T17:37:16.452Z,25.00
2023-01-17T17:42:20.471Z,15.60
2023-01-17T17:47:24.617Z,15.10
2023-01-17T17:52:31.371Z,12.77
2023-01-17T17:57:33.521Z,9.52
2023-01-17T18:02:35.757Z,8.95
2023-01-17T18:07:38.564Z,8.65
2023-01-17T18:12:41.419Z,15.05
2023-01-17T18:22:46.915Z,23.63
2023-01-17T18:27:49.758Z,26.75
2023-01-17T18:37:55.009Z,18.00
2023-01-17T18:48:00.696Z,15.90
2023-01-17T18:53:03.410Z,13.57
2023-01-17T18:58:06.166Z,12.80
2023-01-17T19:03:08.919Z,14.25
2023-01-17T19:08:11.713Z,15.38
2023-01-17T19:13:16.232Z,14.15
2023-01-17T19:18:19.456Z,10.80
2023-01-17T19:23:23.738Z,15.27
2023-01-17T19:28:27.347Z,13.48
2023-01-17T19:33:29.909Z,7.00
2023-01-17T19:38:35.447Z,13.10
2023-01-17T19:43:39.017Z,15.77
2023-01-17T19:48:46.443Z,21.40
2023-01-17T19:53:49.414Z,15.70
2023-01-17T19:58:52.676Z,16.48
2023-01-17T20:03:57.932Z,17.65
2023-01-17T20:09:01.390Z,15.77
2023-01-17T20:14:06.011Z,22.33
2023-01-17T20:19:08.705Z,19.75
2023-01-17T20:24:12.910Z,17.27
2023-01-17T20:29:19.701Z,16.75
2023-01-17T20:34:26.561Z,16.27
2023-01-17T20:39:33.262Z,12.95
2023-01-17T20:44:36.259Z,12.63
2023-01-17T20:54:43.667Z,13.05
2023-01-17T20:59:46.964Z,12.43
2023-01-17T21:04:50.349Z,11.63
2023-01-17T21:09:53.404Z,12.18
2023-01-17T21:14:55.889Z,15.38
2023-01-17T21:19:59.479Z,20.50
2023-01-17T21:25:01.550Z,12.30
2023-01-17T21:30:03.906Z,12.90
2023-01-17T21:35:07.893Z,12.85
2023-01-17T21:40:10.847Z,13.23
2023-01-17T21:45:12.894Z,15.02
2023-01-17T21:50:28.452Z,12.45
2023-01-17T21:55:53.322Z,10.98
2023-01-17T22:01:07.933Z,11.50
2023-01-17T22:06:10.663Z,11.55
2023-01-17T22:11:15.487Z,10.85
2023-01-17T22:16:20.759Z,12.02
2023-01-17T22:21:25.048Z,10.88
2023-01-17T22:26:29.913Z,11.13
2023-01-17T22:31:31.999Z,11.35
2023-01-17T22:36:34.394Z,11.65
2023-01-17T22:41:38.439Z,11.23
2023-01-17T22:46:41.622Z,11.27
2023-01-17T22:51:43.613Z,12.23
2023-01-17T22:56:45.642Z,12.73
2023-01-17T23:01:47.623Z,13.10
2023-01-17T23:06:49.607Z,13.43
2023-01-17T23:11:54.331Z,16.95
2023-01-17T23:17:17.084Z,15.43
2023-01-17T23:22:22.139Z,15.00
2023-01-17T23:27:44.538Z,15.32
2023-01-17T23:32:49.813Z,14.48
2023-01-17T23:38:10.601Z,14.23
2023-01-17T23:43:24.728Z,13.95
2023-01-17T23:48:27.165Z,12.27
2023-01-17T23:53:29.258Z,13.95
2023-01-17T23:58:31.428Z,15.43
